Time;durP1;ratioP1;P1;durP2;ratioP2;P2;SDS_P1;SDS_P2;PMS_P1;PMS_P2;Temp;Humidity;BMP_temperature;BMP_pressure;BME280_temperature;BME280_humidity;BME280_pressure;Samples;Min_cycle;Max_cycle;Signal;HPM_P1;HPM_P2
2020/12/29 00:01:54;;;;;;;;;;;;;;;7.92;55.90;97946.06;6014292;23;96620;-90
2020/12/29 00:04:22;;;;;;;;;;;;;;;8.07;55.69;97949.44;6019550;23;96724;-92
2020/12/29 00:06:51;;;;;;;;;;;;;;;8.07;55.81;97947.66;6015641;23;98247;-92
2020/12/29 00:09:19;;;;;;;;;;;;;;;7.87;56.03;97943.78;6014017;23;97236;-93
2020/12/29 00:11:46;;;;;;;;;;;;;;;7.97;55.98;97955.31;6017105;23;96492;-90
2020/12/29 00:14:12;;;;;;;;;;;;;;;7.86;56.31;97952.59;6023530;23;96560;-89
2020/12/29 00:16:39;;;;;;;;;;;;;;;7.82;56.60;97955.53;6025789;23;100612;-93
2020/12/29 00:19:07;;;;;;;;;;;;;;;7.61;57.19;97956.03;6024112;23;99006;-87
2020/12/29 00:21:35;;;;;;;;;;;;;;;7.81;56.87;97952.03;6027315;23;95909;-80
2020/12/29 00:24:02;;;;;;;;;;;;;;;7.94;56.39;97950.25;6028108;23;97517;-91
2020/12/29 00:26:32;;;;;;;;;;;;;;;7.84;56.71;97940.50;6022523;23;98031;-90
2020/12/29 00:28:58;;;;;;;;;;;;;;;7.87;56.65;97942.94;6026330;23;98037;-90
2020/12/29 00:31:24;;;;;;;;;;;;;;;7.88;56.76;97940.16;6028455;23;96240;-93
2020/12/29 00:33:51;;;;;;;;;;;;;;;7.92;56.50;97939.03;6028125;23;96556;-90
2020/12/29 00:36:18;;;;;;;;;;;;;;;8.05;55.92;97936.38;6026093;23;98005;-87
2020/12/29 00:38:44;;;;;;;;;;;;;;;8.03;56.05;97935.66;6027154;23;98088;-83
2020/12/29 00:41:11;;;;;;;;;;;;;;;7.97;56.01;97931.66;6029315;23;95900;-82
2020/12/29 00:43:40;;;;;;;;;;;;;;;7.93;56.28;97922.31;6028864;23;96081;-88
2020/12/29 00:46:08;;;;;;;;;;;;;;;8.12;55.79;97916.59;6028167;23;100562;-90
2020/12/29 00:48:36;;;;;;;;;;;;;;;8.10;55.83;97917.66;6027639;23;100212;-89
2020/12/29 00:51:03;;;;;;;;;;;;;;;8.22;55.68;97922.03;6027595;23;96558;-91
2020/12/29 00:53:29;;;;;;;;;;;;;;;8.27;55.76;97918.13;6026503;23;96455;-89
2020/12/29 00:55:55;;;;;;;;;;;;;;;8.01;56.07;97921.75;6026776;23;99468;-86
2020/12/29 00:58:21;;;;;;;;;;;;;;;7.76;56.80;97922.63;6027483;23;101326;-89
2020/12/29 01:00:47;;;;;;;;;;;;;;;7.84;56.45;97928.19;6028110;23;95952;-85
2020/12/29 01:03:13;;;;;;;;;;;;;;;7.89;56.44;97930.50;6027835;23;96007;-89
2020/12/29 01:05:39;;;;;;;;;;;;;;;8.13;55.84;97933.22;6026457;23;97148;-87
2020/12/29 01:08:05;;;;;;;;;;;;;;;8.02;55.77;97939.22;6027699;23;99662;-90
2020/12/29 01:10:31;;;;;;;;;;;;;;;7.80;56.77;97949.53;6028923;23;95923;-89
2020/12/29 01:12:57;;;;;;;;;;;;;;;7.85;56.57;97955.31;6026740;23;95943;-90
2020/12/29 01:15:25;;;;;;;;;;;;;;;7.87;56.69;97962.19;6022987;23;98490;-88
2020/12/29 01:17:52;;;;;;;;;;;;;;;8.00;56.64;97967.44;6022837;23;98306;-89
2020/12/29 01:20:18;;;;;;;;;;;;;;;7.52;57.74;97976.84;6021346;23;96527;-89
2020/12/29 01:22:44;;;;;;;;;;;;;;;7.60;57.61;97969.28;6018875;23;96550;-89
2020/12/29 01:25:10;;;;;;;;;;;;;;;7.61;57.85;97974.44;6018448;23;98169;-90
2020/12/29 01:27:36;;;;;;;;;;;;;;;7.58;57.59;97979.06;6014446;23;98218;-90
2020/12/29 01:30:02;;;;;;;;;;;;;;;7.89;57.00;97983.06;6014412;23;96462;-89
2020/12/29 01:32:28;;;;;;;;;;;;;;;7.67;57.81;97974.97;6015049;23;96770;-90
2020/12/29 01:34:55;;;;;;;;;;;;;;;7.63;58.02;97981.38;6013425;23;101686;-90
2020/12/29 01:37:21;;;;;;;;;;;;;;;7.74;57.92;97976.25;6011466;23;99872;-90
2020/12/29 01:39:47;;;;;;;;;;;;;;;7.66;57.87;97973.28;6013099;23;96759;-89
2020/12/29 01:42:13;;;;;;;;;;;;;;;7.76;57.58;97974.34;6012210;23;96515;-90
2020/12/29 01:44:39;;;;;;;;;;;;;;;7.56;57.74;97980.94;6010289;23;98392;-89
2020/12/29 01:47:04;;;;;;;;;;;;;;;7.66;57.91;97984.66;6008640;23;101213;-90
2020/12/29 01:49:30;;;;;;;;;;;;;;;7.25;59.03;97989.16;6013938;23;97240;-90
2020/12/29 01:51:57;;;;;;;;;;;;;;;7.49;58.44;97991.00;6013804;23;96679;-91
2020/12/29 01:54:23;;;;;;;;;;;;;;;7.24;59.55;97987.47;6012739;23;96804;-93
2020/12/29 01:56:49;;;;;;;;;;;;;;;7.33;58.75;97992.16;6021282;23;98068;-89
2020/12/29 01:59:15;;;;;;;;;;;;;;;7.41;58.66;97990.72;6025262;23;96947;-90
2020/12/29 02:01:42;;;;;;;;;;;;;;;7.42;58.53;97995.00;6023922;23;96425;-90
2020/12/29 02:04:09;;;;;;;;;;;;;;;7.37;59.03;97996.25;6023781;23;99672;-90
2020/12/29 02:06:35;;;;;;;;;;;;;;;7.42;58.99;97992.38;6018964;23;99958;-90
2020/12/29 02:09:02;;;;;;;;;;;;;;;7.70;57.77;97993.16;6019906;23;96656;-91
2020/12/29 02:11:29;;;;;;;;;;;;;;;7.59;58.17;97986.84;6024151;23;96013;-90
2020/12/29 02:13:55;;;;;;;;;;;;;;;7.56;58.37;97981.78;6025607;23;96970;-90
2020/12/29 02:16:21;;;;;;;;;;;;;;;7.63;58.10;97971.69;6024628;23;98215;-90
2020/12/29 02:18:47;;;;;;;;;;;;;;;7.77;57.23;97957.63;6026451;23;96777;-91
2020/12/29 02:21:13;;;;;;;;;;;;;;;7.78;57.46;97951.44;6025717;23;96501;-90
2020/12/29 02:23:40;;;;;;;;;;;;;;;7.80;57.56;97939.03;6025592;23;96922;-89
2020/12/29 02:26:06;;;;;;;;;;;;;;;7.92;57.34;97940.81;6026041;23;98255;-91
2020/12/29 02:28:34;;;;;;;;;;;;;;;7.70;57.63;97940.59;6026598;23;96536;-91
2020/12/29 02:31:01;;;;;;;;;;;;;;;7.80;57.33;97933.78;6026529;23;96524;-91
2020/12/29 02:33:27;;;;;;;;;;;;;;;7.95;57.02;97932.69;6026747;23;98403;-90
2020/12/29 02:35:53;;;;;;;;;;;;;;;7.93;57.36;97938.09;6023676;23;97694;-87
2020/12/29 02:38:21;;;;;;;;;;;;;;;8.05;57.06;97931.13;6028639;23;95775;-90
2020/12/29 02:40:48;;;;;;;;;;;;;;;7.98;56.89;97932.50;6028189;23;97874;-90
2020/12/29 02:43:14;;;;;;;;;;;;;;;7.93;56.82;97935.47;6027820;23;99676;-90
2020/12/29 02:45:40;;;;;;;;;;;;;;;7.50;58.10;97928.81;6027112;23;101574;-91
2020/12/29 02:48:06;;;;;;;;;;;;;;;7.69;58.03;97931.03;6017460;23;96544;-91
2020/12/29 02:50:32;;;;;;;;;;;;;;;7.59;58.03;97926.41;6013724;23;96703;-92
2020/12/29 02:52:58;;;;;;;;;;;;;;;7.53;58.24;97924.19;6015919;23;97243;-93
2020/12/29 02:55:27;;;;;;;;;;;;;;;7.55;57.99;97945.94;5989718;23;97405;-91
2020/12/29 02:57:54;;;;;;;;;;;;;;;7.41;58.61;97948.66;6020236;23;96504;-91
2020/12/29 03:00:21;;;;;;;;;;;;;;;7.40;58.77;97935.63;6024272;23;96106;-91
2020/12/29 03:02:47;;;;;;;;;;;;;;;7.37;58.54;97923.53;6021384;23;98441;-91
2020/12/29 03:05:13;;;;;;;;;;;;;;;7.79;57.35;97929.47;6024590;23;99365;-89
2020/12/29 03:07:39;;;;;;;;;;;;;;;7.61;57.79;97935.00;6018235;23;96601;-91
2020/12/29 03:10:06;;;;;;;;;;;;;;;7.61;57.51;97931.56;6014672;23;96780;-91
2020/12/29 03:12:32;;;;;;;;;;;;;;;7.57;57.85;97927.44;6015736;23;100510;-91
2020/12/29 03:14:59;;;;;;;;;;;;;;;7.38;58.26;97922.59;6023718;23;97786;-91
2020/12/29 03:17:30;;;;;;;;;;;;;;;7.54;57.93;97930.28;6013613;23;96622;-91
2020/12/29 03:19:56;;;;;;;;;;;;;;;7.69;57.45;97931.03;6012756;23;96813;-91
2020/12/29 03:22:22;;;;;;;;;;;;;;;7.58;57.89;97935.22;6015670;23;98170;-92
2020/12/29 03:24:47;;;;;;;;;;;;;;;7.36;58.85;97942.00;6017012;23;98082;-90
2020/12/29 03:27:13;;;;;;;;;;;;;;;7.53;58.27;97939.97;6025833;23;96626;-89
2020/12/29 03:29:39;;;;;;;;;;;;;;;7.64;58.30;97951.53;6025332;23;96565;-90
2020/12/29 03:32:06;;;;;;;;;;;;;;;7.47;58.81;97960.56;6026820;23;98357;-90
2020/12/29 03:34:37;;;;;;;;;;;;;;;7.63;58.05;97966.44;6026923;23;97715;-83
2020/12/29 03:37:03;;;;;;;;;;;;;;;7.69;58.02;97975.69;6031264;23;96410;-90
2020/12/29 03:39:29;;;;;;;;;;;;;;;7.73;57.74;97969.31;6030286;23;96316;-83
2020/12/29 03:41:57;;;;;;;;;;;;;;;7.87;57.07;97970.06;6030254;23;98153;-90
2020/12/29 03:44:24;;;;;;;;;;;;;;;7.67;57.30;97959.22;6027845;23;98893;-85
2020/12/29 03:46:50;;;;;;;;;;;;;;;7.46;58.17;97969.38;6027649;23;96381;-91
2020/12/29 03:49:16;;;;;;;;;;;;;;;7.58;58.01;97977.28;6019971;23;96611;-92
2020/12/29 03:51:42;;;;;;;;;;;;;;;7.19;59.53;97977.28;6015424;23;101600;-91
2020/12/29 03:54:08;;;;;;;;;;;;;;;7.50;58.52;97974.31;6018358;23;99832;-92
2020/12/29 03:56:34;;;;;;;;;;;;;;;7.70;58.02;97969.50;6024020;23;95770;-90
2020/12/29 03:59:00;;;;;;;;;;;;;;;7.61;57.87;97966.53;6023303;23;96538;-91
2020/12/29 04:01:26;;;;;;;;;;;;;;;7.60;58.08;97972.78;6019114;23;99169;-90
2020/12/29 04:03:52;;;;;;;;;;;;;;;7.68;57.88;97968.78;6015488;23;100185;-89
2020/12/29 04:06:19;;;;;;;;;;;;;;;7.53;58.10;97975.91;6013389;23;96752;-88
2020/12/29 04:08:45;;;;;;;;;;;;;;;7.40;58.47;97986.38;6014658;23;96589;-90
2020/12/29 04:11:11;;;;;;;;;;;;;;;7.48;58.14;97978.81;6011591;23;99186;-89
2020/12/29 04:13:37;;;;;;;;;;;;;;;7.30;58.83;97977.41;6025649;23;98076;-89
2020/12/29 04:16:03;;;;;;;;;;;;;;;7.51;58.33;97990.91;6030073;23;95823;-89
2020/12/29 04:18:29;;;;;;;;;;;;;;;7.17;59.12;97990.50;6030430;23;96567;-81
2020/12/29 04:20:55;;;;;;;;;;;;;;;7.34;58.84;97997.31;6030039;23;99206;-91
2020/12/29 04:23:22;;;;;;;;;;;;;;;7.55;58.15;97998.50;6025875;23;96758;-90
2020/12/29 04:25:48;;;;;;;;;;;;;;;7.55;58.41;97995.88;6028649;23;96624;-89
2020/12/29 04:28:14;;;;;;;;;;;;;;;7.72;57.56;97993.91;6029091;23;95819;-91
2020/12/29 04:30:40;;;;;;;;;;;;;;;7.53;57.96;98005.66;6026504;23;100259;-86
2020/12/29 04:33:06;;;;;;;;;;;;;;;7.71;57.81;97994.84;6028606;23;99042;-89
2020/12/29 04:35:32;;;;;;;;;;;;;;;7.91;57.01;97999.59;6030814;23;95864;-85
2020/12/29 04:37:58;;;;;;;;;;;;;;;7.67;57.33;97990.75;6027369;23;96494;-87
2020/12/29 04:40:25;;;;;;;;;;;;;;;7.63;57.53;97984.00;6025052;23;97981;-92
2020/12/29 04:42:52;;;;;;;;;;;;;;;7.81;56.99;97991.47;6021548;23;100847;-91
2020/12/29 04:45:19;;;;;;;;;;;;;;;7.55;57.97;97984.50;5991604;23;96565;-89
2020/12/29 04:47:47;;;;;;;;;;;;;;;7.54;57.91;97988.94;6030407;23;97724;-87
2020/12/29 04:50:15;;;;;;;;;;;;;;;7.47;57.97;97973.69;6029874;23;98294;-89
2020/12/29 04:52:42;;;;;;;;;;;;;;;7.54;57.68;97974.97;6029894;23;98627;-83
2020/12/29 04:55:09;;;;;;;;;;;;;;;7.76;57.17;97974.34;6029279;23;96130;-85
2020/12/29 04:57:36;;;;;;;;;;;;;;;7.74;56.96;97973.63;6030443;23;95954;-85
2020/12/29 05:00:04;;;;;;;;;;;;;;;7.85;56.41;97992.13;6029476;23;97782;-86
2020/12/29 05:02:29;;;;;;;;;;;;;;;7.70;56.83;97994.00;6030114;23;99728;-82
2020/12/29 05:04:55;;;;;;;;;;;;;;;7.49;57.88;98001.53;6030920;23;95829;-83
2020/12/29 05:10:08;;;;;;;;;;;;;;;7.35;57.87;97993.72;6029318;23;98945;-80
2020/12/29 05:12:34;;;;;;;;;;;;;;;7.40;57.40;97998.69;6030183;23;98088;-90
2020/12/29 05:15:15;;;;;;;;;;;;;;;7.32;57.67;98009.69;6028460;23;95757;-90
2020/12/29 05:20:20;;;;;;;;;;;;;;;6.94;58.77;98009.56;5954195;23;100289;-91
2020/12/29 05:22:48;;;;;;;;;;;;;;;7.07;58.53;97999.94;6054885;23;96802;-93
2020/12/29 05:25:17;;;;;;;;;;;;;;;7.20;58.14;98007.88;6054903;23;96305;-92
2020/12/29 05:30:19;;;;;;;;;;;;;;;7.09;58.56;98012.94;5994229;23;96688;-92
2020/12/29 05:32:46;;;;;;;;;;;;;;;7.20;57.85;98011.34;5995416;23;99836;-92
2020/12/29 05:35:13;;;;;;;;;;;;;;;7.22;57.83;98027.81;6001350;23;95987;-92
2020/12/29 05:45:48;;;;;;;;;;;;;;;6.99;58.33;98049.47;6024105;23;95897;-90
2020/12/29 05:48:24;;;;;;;;;;;;;;;7.01;58.05;98047.59;6022381;23;96799;-91
2020/12/29 05:53:34;;;;;;;;;;;;;;;7.10;57.75;98052.25;6016910;23;96615;-90
2020/12/29 05:56:04;;;;;;;;;;;;;;;7.05;57.82;98061.38;6022144;23;96533;-90
2020/12/29 05:58:31;;;;;;;;;;;;;;;7.10;57.56;98060.13;6022810;23;96423;-90
2020/12/29 06:00:58;;;;;;;;;;;;;;;7.31;57.08;98052.66;6028998;23;96939;-89
2020/12/29 06:03:24;;;;;;;;;;;;;;;7.02;57.75;98061.56;5998836;23;98121;-91
2020/12/29 06:05:50;;;;;;;;;;;;;;;6.84;58.23;98071.44;6012526;23;96596;-92
2020/12/29 06:08:17;;;;;;;;;;;;;;;6.98;57.84;98073.19;6013015;23;96806;-90
2020/12/29 06:10:46;;;;;;;;;;;;;;;6.89;57.99;98073.78;6024624;23;98901;-89
2020/12/29 06:13:14;;;;;;;;;;;;;;;6.85;58.37;98074.91;6028764;23;99368;-90
2020/12/29 06:15:40;;;;;;;;;;;;;;;6.82;58.16;98073.31;6023631;23;96403;-91
2020/12/29 06:18:07;;;;;;;;;;;;;;;6.98;57.49;98078.44;6030104;23;95942;-89
2020/12/29 06:20:34;;;;;;;;;;;;;;;7.09;56.88;98089.09;6029475;23;100356;-90
2020/12/29 06:23:01;;;;;;;;;;;;;;;6.71;58.18;98092.34;6024303;23;98297;-89
2020/12/29 06:25:29;;;;;;;;;;;;;;;6.84;58.18;98084.56;6028920;23;95786;-90
2020/12/29 06:27:58;;;;;;;;;;;;;;;6.93;57.88;98080.53;5996604;23;96388;-90
2020/12/29 06:30:25;;;;;;;;;;;;;;;6.90;57.65;98093.81;6015084;23;99895;-89
2020/12/29 06:32:53;;;;;;;;;;;;;;;6.96;57.43;98085.56;6016432;23;97944;-90
2020/12/29 06:35:21;;;;;;;;;;;;;;;7.01;57.35;98078.25;6013968;23;96617;-89
2020/12/29 06:37:51;;;;;;;;;;;;;;;6.91;57.49;98082.38;6010590;23;96680;-89
2020/12/29 06:40:17;;;;;;;;;;;;;;;6.82;57.87;98083.81;6008761;23;97669;-88
2020/12/29 06:42:43;;;;;;;;;;;;;;;6.86;57.80;98089.72;6009247;23;96678;-88
2020/12/29 06:45:10;;;;;;;;;;;;;;;6.86;57.73;98097.59;5987485;23;96607;-89
2020/12/29 06:47:37;;;;;;;;;;;;;;;6.79;57.97;98100.59;5980545;23;96751;-88
2020/12/29 06:50:19;;;;;;;;;;;;;;;6.91;57.19;98098.97;5981760;23;99901;-88
2020/12/29 06:52:52;;;;;;;;;;;;;;;7.01;57.03;98105.38;5979003;23;99486;-89
2020/12/29 06:55:19;;;;;;;;;;;;;;;6.80;57.66;98112.78;5980321;23;96620;-89
2020/12/29 06:57:46;;;;;;;;;;;;;;;6.91;57.52;98116.50;5955031;23;96776;-89
2020/12/29 07:00:19;;;;;;;;;;;;;;;6.85;57.58;98109.88;5979198;23;97702;-90
2020/12/29 07:02:46;;;;;;;;;;;;;;;7.04;56.69;98114.81;5979551;23;98234;-89
2020/12/29 07:05:12;;;;;;;;;;;;;;;7.16;56.14;98121.91;5981222;23;96493;-89
2020/12/29 07:07:45;;;;;;;;;;;;;;;6.97;56.63;98124.00;5981664;23;96872;-90
2020/12/29 07:10:13;;;;;;;;;;;;;;;6.97;56.80;98131.88;5981503;23;100061;-89
2020/12/29 07:12:43;;;;;;;;;;;;;;;7.00;56.51;98137.81;5983002;23;99224;-91
2020/12/29 07:15:09;;;;;;;;;;;;;;;6.90;57.30;98139.28;5987821;23;96637;-90
2020/12/29 07:17:35;;;;;;;;;;;;;;;6.82;57.33;98140.72;5994051;23;96597;-89
2020/12/29 07:20:11;;;;;;;;;;;;;;;6.93;57.42;98140.91;5997774;23;98226;-91
2020/12/29 07:22:37;;;;;;;;;;;;;;;7.04;56.90;98151.56;5994987;23;102351;-91
2020/12/29 07:25:03;;;;;;;;;;;;;;;7.17;56.11;98158.59;5987841;23;96663;-89
2020/12/29 07:27:30;;;;;;;;;;;;;;;6.70;57.34;98158.88;5988385;23;96742;-91
2020/12/29 07:29:57;;;;;;;;;;;;;;;6.98;56.79;98160.69;5985070;23;96764;-91
2020/12/29 07:32:24;;;;;;;;;;;;;;;6.67;57.21;98163.50;5997268;23;98562;-91
2020/12/29 07:37:50;;;;;;;;;;;;;;;7.02;56.35;98179.72;5996512;23;96363;-92
2020/12/29 07:40:16;;;;;;;;;;;;;;;7.01;56.46;98178.88;5990708;23;99533;-91
2020/12/29 07:42:43;;;;;;;;;;;;;;;6.86;56.55;98179.81;5985818;23;101808;-92
2020/12/29 07:45:09;;;;;;;;;;;;;;;6.90;56.85;98191.78;5989273;23;96561;-93
2020/12/29 07:50:10;;;;;;;;;;;;;;;6.85;56.69;98177.28;6013311;23;100677;-92
2020/12/29 07:58:02;;;;;;;;;;;;;;;6.87;57.04;98199.03;6023577;23;96722;-91
2020/12/29 08:00:29;;;;;;;;;;;;;;;7.10;56.04;98206.34;6020750;23;98489;-90
2020/12/29 08:02:56;;;;;;;;;;;;;;;7.12;56.01;98213.19;6027967;23;97054;-88
2020/12/29 08:05:22;;;;;;;;;;;;;;;7.07;56.00;98223.13;6029657;23;95901;-85
2020/12/29 08:07:58;;;;;;;;;;;;;;;6.82;56.94;98228.19;6027258;23;96328;-87
2020/12/29 08:10:24;;;;;;;;;;;;;;;6.86;56.47;98227.06;6028788;23;98335;-86
2020/12/29 08:12:52;;;;;;;;;;;;;;;6.98;56.07;98220.22;6028313;23;97722;-83
2020/12/29 08:18:12;;;;;;;;;;;;;;;7.33;55.18;98226.78;6025599;23;96816;-91
2020/12/29 08:20:43;;;;;;;;;;;;;;;7.38;54.86;98229.97;6027205;23;98182;-92
2020/12/29 08:23:09;;;;;;;;;;;;;;;7.24;55.40;98226.50;6029303;23;98128;-90
2020/12/29 08:25:36;;;;;;;;;;;;;;;7.28;55.23;98228.84;6028720;23;96285;-90
2020/12/29 08:28:03;;;;;;;;;;;;;;;7.46;54.47;98219.81;6029272;23;96411;-85
2020/12/29 08:30:31;;;;;;;;;;;;;;;7.27;55.11;98226.31;6029476;23;100468;-90
2020/12/29 08:32:57;;;;;;;;;;;;;;;7.39;54.74;98234.28;6028303;23;97931;-91
2020/12/29 08:35:24;;;;;;;;;;;;;;;7.36;55.45;98241.50;6029843;23;95967;-90
2020/12/29 08:38:00;;;;;;;;;;;;;;;7.22;55.46;98255.47;6025511;23;96713;-92
2020/12/29 08:40:28;;;;;;;;;;;;;;;7.38;55.21;98266.75;6024019;23;98608;-92
2020/12/29 08:43:16;;;;;;;;;;;;;;;7.29;55.49;98272.56;6023810;23;97455;-90
2020/12/29 08:45:43;;;;;;;;;;;;;;;7.25;55.93;98275.47;6024258;23;96633;-91
2020/12/29 08:48:10;;;;;;;;;;;;;;;7.49;54.77;98273.94;6027157;23;96774;-83
2020/12/29 08:50:37;;;;;;;;;;;;;;;7.37;55.16;98272.94;6027636;23;98481;-88
2020/12/29 08:53:04;;;;;;;;;;;;;;;7.27;55.22;98277.06;6026061;23;100802;-88
2020/12/29 08:55:30;;;;;;;;;;;;;;;7.27;55.20;98284.97;6029670;23;96584;-87
2020/12/29 08:57:57;;;;;;;;;;;;;;;7.34;54.96;98299.41;6027962;23;96136;-90
2020/12/29 09:00:23;;;;;;;;;;;;;;;7.29;55.46;98297.97;6027654;23;98180;-89
2020/12/29 09:02:50;;;;;;;;;;;;;;;7.68;54.11;98306.03;6020444;23;96707;-91
2020/12/29 09:05:25;;;;;;;;;;;;;;;7.71;54.00;98321.63;6027998;23;96494;-93
2020/12/29 09:07:52;;;;;;;;;;;;;;;7.67;53.96;98321.91;6030060;23;95961;-86
2020/12/29 09:10:19;;;;;;;;;;;;;;;7.75;53.90;98323.13;6030840;23;96381;-84
2020/12/29 09:12:46;;;;;;;;;;;;;;;7.78;53.65;98330.81;6030222;23;99173;-86
2020/12/29 09:17:58;;;;;;;;;;;;;;;7.82;53.73;98344.59;6025873;23;96619;-90
2020/12/29 09:20:25;;;;;;;;;;;;;;;8.22;52.99;98348.22;6019385;23;97729;-90
2020/12/29 09:22:56;;;;;;;;;;;;;;;8.23;52.75;98347.28;6017857;23;98192;-92
2020/12/29 09:25:23;;;;;;;;;;;;;;;8.09;53.11;98348.16;6018816;23;96620;-89
2020/12/29 09:27:49;;;;;;;;;;;;;;;8.37;52.57;98339.38;6013148;23;97098;-91
2020/12/29 09:30:15;;;;;;;;;;;;;;;8.31;52.49;98347.66;6022387;23;98102;-92
2020/12/29 09:35:26;;;;;;;;;;;;;;;8.70;51.25;98350.34;6025760;23;96688;-93
2020/12/29 09:37:53;;;;;;;;;;;;;;;8.70;51.45;98352.97;6005148;23;96389;-92
2020/12/29 09:40:20;;;;;;;;;;;;;;;8.90;50.96;98362.19;6027767;23;96891;-92
2020/12/29 09:42:46;;;;;;;;;;;;;;;8.98;50.68;98359.06;6024587;23;97067;-89
2020/12/29 09:47:58;;;;;;;;;;;;;;;9.29;49.42;98363.94;6028597;23;96039;-85
2020/12/29 09:50:24;;;;;;;;;;;;;;;9.35;49.37;98366.16;6021728;23;98701;-85
2020/12/29 09:55:32;;;;;;;;;;;;;;;9.29;49.56;98363.09;6025252;23;96587;-93
2020/12/29 09:58:24;;;;;;;;;;;;;;;9.15;50.32;98369.31;6029269;23;96525;-91
2020/12/29 10:03:32;;;;;;;;;;;;;;;9.23;50.20;98372.28;6027399;23;96425;-92
2020/12/29 10:05:57;;;;;;;;;;;;;;;9.63;49.02;98362.50;6027780;23;96316;-93
2020/12/29 10:08:24;;;;;;;;;;;;;;;9.42;48.80;98359.53;6023962;23;97020;-92
2020/12/29 10:10:50;;;;;;;;;;;;;;;9.09;49.88;98359.19;6024053;23;102082;-93
2020/12/29 10:18:41;;;;;;;;;;;;;;;8.95;50.61;98365.38;6028291;23;96993;-89
2020/12/29 10:21:07;;;;;;;;;;;;;;;9.09;50.23;98373.19;6028614;23;98602;-91
2020/12/29 10:26:17;;;;;;;;;;;;;;;9.44;49.11;98384.00;6027569;23;96015;-93
2020/12/29 10:28:43;;;;;;;;;;;;;;;9.56;49.26;98387.59;6027070;23;96426;-92
2020/12/29 10:31:09;;;;;;;;;;;;;;;9.08;50.25;98387.31;6026474;23;97960;-92
2020/12/29 10:33:35;;;;;;;;;;;;;;;9.11;50.24;98399.44;6026570;23;100020;-91
2020/12/29 10:36:02;;;;;;;;;;;;;;;8.93;50.44;98404.13;6026782;23;96460;-91
2020/12/29 10:38:29;;;;;;;;;;;;;;;8.72;51.05;98406.38;6000030;23;96076;-91
2020/12/29 10:41:08;;;;;;;;;;;;;;;8.69;51.26;98408.34;6026206;23;98129;-94
2020/12/29 10:43:38;;;;;;;;;;;;;;;8.63;51.54;98419.28;6028074;23;96898;-92
2020/12/29 10:46:05;;;;;;;;;;;;;;;8.98;50.86;98420.50;6025363;23;96671;-93
2020/12/29 10:48:32;;;;;;;;;;;;;;;9.01;50.67;98422.91;6027292;23;96667;-92
2020/12/29 10:51:04;;;;;;;;;;;;;;;9.09;50.81;98419.78;6055399;23;99940;-93
2020/12/29 10:53:33;;;;;;;;;;;;;;;9.12;50.60;98430.13;6055212;23;99901;-92
2020/12/29 10:56:04;;;;;;;;;;;;;;;8.92;50.64;98426.16;6054435;23;96515;-89
2020/12/29 10:58:31;;;;;;;;;;;;;;;9.22;49.91;98419.78;6055992;23;96068;-91
2020/12/29 11:00:57;;;;;;;;;;;;;;;9.48;49.52;98416.25;6056747;23;96512;-95
2020/12/29 11:03:28;;;;;;;;;;;;;;;9.56;49.27;98420.06;6050982;23;99224;-90
2020/12/29 11:09:04;;;;;;;;;;;;;;;9.52;49.30;98425.63;6046092;23;96703;-94
2020/12/29 11:11:48;;;;;;;;;;;;;;;9.53;50.02;98424.69;6050815;23;97159;-90
2020/12/29 11:14:18;;;;;;;;;;;;;;;9.36;49.83;98427.63;5989898;23;100902;-87
2020/12/29 11:19:51;;;;;;;;;;;;;;;9.78;49.36;98423.88;5998450;23;95999;-93
2020/12/29 11:22:20;;;;;;;;;;;;;;;9.61;49.03;98430.28;5995488;23;98910;-91
2020/12/29 11:25:01;;;;;;;;;;;;;;;9.36;50.19;98433.75;5997016;23;97809;-91
2020/12/29 11:27:28;;;;;;;;;;;;;;;9.32;49.97;98434.06;5997978;23;96560;-87
2020/12/29 11:29:57;;;;;;;;;;;;;;;9.44;50.11;98436.72;6000405;23;96019;-89
2020/12/29 11:32:24;;;;;;;;;;;;;;;9.65;49.62;98439.69;6000654;23;97522;-86
2020/12/29 11:34:50;;;;;;;;;;;;;;;9.42;49.57;98448.31;5998516;23;98464;-88
2020/12/29 11:37:17;;;;;;;;;;;;;;;9.56;49.65;98442.94;5999075;23;95923;-90
2020/12/29 11:39:43;;;;;;;;;;;;;;;9.51;50.01;98452.97;5999921;23;97921;-81
2020/12/29 11:47:34;;;;;;;;;;;;;;;9.35;50.47;98468.09;5987380;23;96119;-90
2020/12/29 11:50:02;;;;;;;;;;;;;;;9.41;50.03;98467.69;6001908;23;97282;-85
2020/12/29 11:52:33;;;;;;;;;;;;;;;9.46;50.23;98476.13;6001742;23;99001;-78
2020/12/29 12:03:10;;;;;;;;;;;;;;;9.52;50.37;98496.81;5957544;23;99761;-86
2020/12/29 12:05:38;;;;;;;;;;;;;;;9.44;50.45;98499.13;6001155;23;96706;-85
2020/12/29 12:08:04;;;;;;;;;;;;;;;9.42;50.62;98495.75;6001766;23;96409;-82
2020/12/29 12:10:30;;;;;;;;;;;;;;;9.36;51.05;98490.88;6002006;23;96355;-90
2020/12/29 12:13:03;;;;;;;;;;;;;;;9.44;50.75;98496.50;6000143;23;96907;-85
2020/12/29 12:15:37;;;;;;;;;;;;;;;9.51;50.85;98495.16;5993256;23;96895;-92
2020/12/29 12:18:19;;;;;;;;;;;;;;;9.38;51.15;98496.91;6001252;23;96670;-89
2020/12/29 12:21:00;;;;;;;;;;;;;;;9.56;50.63;98499.16;6000087;23;95987;-86
2020/12/29 12:23:27;;;;;;;;;;;;;;;9.19;51.66;98499.88;6001757;23;98447;-86
2020/12/29 12:25:53;;;;;;;;;;;;;;;9.17;51.23;98496.53;5999325;23;98594;-89
2020/12/29 12:28:20;;;;;;;;;;;;;;;9.54;50.93;98494.94;5998343;23;96769;-90
2020/12/29 12:30:49;;;;;;;;;;;;;;;9.64;50.60;98489.91;5991445;23;96616;-86
2020/12/29 12:33:17;;;;;;;;;;;;;;;9.88;50.21;98497.00;5988218;23;98212;-86
2020/12/29 12:35:55;;;;;;;;;;;;;;;9.94;50.00;98501.84;5996020;23;96751;-87
2020/12/29 12:38:23;;;;;;;;;;;;;;;10.05;49.94;98509.00;5991606;23;96902;-88
2020/12/29 12:40:49;;;;;;;;;;;;;;;10.00;49.80;98513.78;5992697;23;96735;-85
2020/12/29 12:43:15;;;;;;;;;;;;;;;10.13;49.12;98508.50;5987858;23;98081;-85
2020/12/29 12:45:41;;;;;;;;;;;;;;;10.12;50.08;98512.06;5983272;23;101307;-85
2020/12/29 12:48:10;;;;;;;;;;;;;;;10.21;49.82;98512.34;6010932;23;96739;-87
2020/12/29 12:50:36;;;;;;;;;;;;;;;10.60;48.84;98515.78;5983924;23;96760;-88
2020/12/29 12:53:03;;;;;;;;;;;;;;;10.52;48.85;98524.22;6013518;23;100189;-87
2020/12/29 13:01:27;;;;;;;;;;;;;;;10.18;50.23;98527.53;6020928;23;97022;-89
2020/12/29 13:03:56;;;;;;;;;;;;;;;10.52;49.44;98533.94;6020543;23;100544;-88
2020/12/29 13:06:23;;;;;;;;;;;;;;;10.33;49.32;98526.47;6013732;23;99182;-87
2020/12/29 13:11:36;;;;;;;;;;;;;;;10.20;49.63;98547.59;6014279;23;96897;-88
2020/12/29 13:14:02;;;;;;;;;;;;;;;10.40;49.27;98551.50;6011408;23;100571;-89
2020/12/29 13:16:32;;;;;;;;;;;;;;;10.25;49.42;98556.03;6013443;23;98943;-87
2020/12/29 13:19:00;;;;;;;;;;;;;;;9.87;50.76;98561.25;6009632;23;97213;-89
2020/12/29 13:21:26;;;;;;;;;;;;;;;10.18;50.14;98569.75;5985594;23;96900;-85
2020/12/29 13:23:53;;;;;;;;;;;;;;;10.29;49.51;98562.81;6008390;23;98873;-87
2020/12/29 13:26:19;;;;;;;;;;;;;;;10.03;50.17;98573.41;6010103;23;100848;-86
2020/12/29 13:28:45;;;;;;;;;;;;;;;9.95;50.40;98579.19;6011147;23;96735;-87
2020/12/29 13:31:13;;;;;;;;;;;;;;;9.83;50.71;98580.88;6019680;23;96694;-86
2020/12/29 13:33:42;;;;;;;;;;;;;;;10.03;50.34;98586.59;6024678;23;99217;-86
2020/12/29 13:36:12;;;;;;;;;;;;;;;10.13;50.35;98590.31;6026665;23;98217;-84
2020/12/29 13:38:38;;;;;;;;;;;;;;;9.72;51.14;98588.63;6025599;23;96735;-85
2020/12/29 13:41:04;;;;;;;;;;;;;;;9.86;50.98;98603.53;6024286;23;96373;-87
2020/12/29 13:43:38;;;;;;;;;;;;;;;10.04;49.91;98601.50;6021085;23;97025;-86
2020/12/29 13:46:06;;;;;;;;;;;;;;;10.05;50.56;98613.72;5987904;23;98023;-87
2020/12/29 13:48:32;;;;;;;;;;;;;;;9.62;51.37;98618.34;6010829;23;96991;-86
2020/12/29 13:50:59;;;;;;;;;;;;;;;9.48;51.82;98620.09;6010528;23;96904;-86
2020/12/29 13:53:26;;;;;;;;;;;;;;;9.58;52.11;98630.91;6010959;23;99023;-85
2020/12/29 13:55:52;;;;;;;;;;;;;;;9.76;51.40;98642.88;6012155;23;96817;-85
2020/12/29 13:58:18;;;;;;;;;;;;;;;9.33;52.73;98646.56;6011682;23;96616;-87
2020/12/29 14:00:45;;;;;;;;;;;;;;;9.51;52.17;98645.44;5998815;23;96562;-86
2020/12/29 14:05:53;;;;;;;;;;;;;;;9.81;51.30;98664.53;6017071;23;99191;-87
2020/12/29 14:11:02;;;;;;;;;;;;;;;9.72;51.35;98675.66;6024866;23;96541;-86
2020/12/29 14:13:29;;;;;;;;;;;;;;;9.59;52.21;98677.41;6000816;23;97505;-87
2020/12/29 14:15:55;;;;;;;;;;;;;;;9.62;51.73;98682.47;6022690;23;98876;-85
2020/12/29 14:18:22;;;;;;;;;;;;;;;9.71;51.67;98679.28;6019538;23;96580;-85
2020/12/29 14:20:49;;;;;;;;;;;;;;;9.55;52.32;98681.19;6020699;23;96512;-85
2020/12/29 14:23:16;;;;;;;;;;;;;;;9.59;52.23;98687.94;5993659;23;97938;-87
2020/12/29 14:28:40;;;;;;;;;;;;;;;9.44;52.94;98695.06;6020659;23;96603;-87